Startpagina
METAR-TAF:

METAR-TAF

Vliegvelden :

Düsseldorf, Duitsland

Flughafen Düsseldorf

breedte: 51-18N, lengte: 006-46E, hoogte: 45 m

Actueel weer

Dit bericht is 39 minuten geleden gemaakt, om 09:50 UTC
Wind 6 kt uit het zuiden, variërend tussen het oostzuidoosten en het zuidwesten
Temperatuur 16°C
Vochtigheid 63%
Druk 1021 hPa
Zicht 10 km of meer
geen wolken onder 1500 m en geen cumulonimbus

METAR: EDDL 210950Z 18006KT 120V220 CAVOK 16/09 Q1021 NOSIG

Tijdstip: 12:29 (10:29 UTC)

Verwachting

Dit bericht is 5 uur en het 29 minuten geleden gemaakt, om 05:00 UTC
Verwachting geldig van 21 om 06 UTC tot 22 om 12 UTC
Wind 7 kt uit het zuidzuidoosten
Zicht 10 km of meer
geen wolken onder 1500 m en geen cumulonimbus

TAF: EDDL 210500Z 2106/2212 15007KT CAVOK

Waarnemingen en weersverwachtingen van meer dan 4000 vliegvelden (METAR en TAF).

De beschikbare stations zijn de gele en rode punten op de kaart.

Ga met uw muis naar het station om de naam te zien.

Klik dan om waarnemingen en weersverwachtingen te zien.

kaart wijzigen: klik op de groene knoppen met een zwart kruis om in te zoomen, op de groene knop met een streepje om uit te zoomen of op de groene pijlen voor aangrenzende kaarten.


METAR-TAF: